Time;durP1;ratioP1;P1;durP2;ratioP2;P2;SDS_P1;SDS_P2;PMS_P1;PMS_P2;Temp;Humidity;BMP_temperature;BMP_pressure;BME280_temperature;BME280_humidity;BME280_pressure;Samples;Min_cycle;Max_cycle;Signal;HPM_P1;HPM_P2
2023/12/31 00:00:39;;;;;;;9.63;2.22;;;8.10;99.90;;;;;;5133302;27;20027;-80
2023/12/31 00:03:05;;;;;;;14.27;2.33;;;8.00;99.90;;;;;;5132999;27;20023;-81
2023/12/31 00:05:30;;;;;;;13.55;2.08;;;8.00;99.90;;;;;;5132767;27;20470;-80
2023/12/31 00:07:56;;;;;;;11.25;2.10;;;8.00;99.90;;;;;;5133362;27;20020;-80
2023/12/31 00:10:22;;;;;;;10.60;1.90;;;8.10;99.90;;;;;;5113735;27;20381;-80
2023/12/31 00:12:48;;;;;;;10.45;2.50;;;8.10;99.90;;;;;;5132884;27;20034;-79
2023/12/31 00:15:14;;;;;;;13.05;2.78;;;8.10;99.90;;;;;;5113706;27;20026;-80
2023/12/31 00:17:39;;;;;;;10.93;2.50;;;8.10;99.90;;;;;;5132976;27;20019;-80
2023/12/31 00:20:06;;;;;;;13.88;3.15;;;8.10;99.90;;;;;;5132818;27;20448;-81
2023/12/31 00:22:31;;;;;;;11.98;2.17;;;8.10;99.90;;;;;;5132738;27;20037;-81
2023/12/31 00:24:57;;;;;;;12.73;2.20;;;8.20;99.90;;;;;;5132945;27;20027;-80
2023/12/31 00:27:23;;;;;;;11.88;2.50;;;8.10;99.90;;;;;;5132427;27;20446;-81
2023/12/31 00:29:49;;;;;;;18.33;2.40;;;8.10;99.90;;;;;;5132689;27;20023;-80
2023/12/31 00:32:16;;;;;;;7.68;1.70;;;8.10;99.90;;;;;;5132174;27;20019;-80
2023/12/31 00:34:42;;;;;;;11.30;2.30;;;8.20;99.90;;;;;;5132785;27;20034;-80
2023/12/31 00:37:07;;;;;;;15.98;2.45;;;8.10;99.90;;;;;;5132431;27;20015;-81
2023/12/31 00:39:33;;;;;;;9.65;2.10;;;8.10;99.90;;;;;;5132246;27;20023;-79
2023/12/31 00:41:59;;;;;;;15.27;2.10;;;8.00;99.90;;;;;;5132329;27;20023;-80
2023/12/31 00:44:24;;;;;;;11.60;2.65;;;8.00;99.90;;;;;;5131888;27;20451;-79
2023/12/31 00:46:50;;;;;;;19.55;2.20;;;7.90;99.90;;;;;;5131920;27;20103;-79
2023/12/31 00:49:16;;;;;;;11.02;2.30;;;7.90;99.90;;;;;;5131796;27;20102;-80
2023/12/31 00:51:43;;;;;;;8.82;2.17;;;7.90;99.90;;;;;;5131955;27;20049;-79
2023/12/31 00:54:09;;;;;;;11.18;1.92;;;7.90;99.90;;;;;;5131560;27;20134;-80
2023/12/31 00:56:35;;;;;;;11.25;2.22;;;8.00;99.90;;;;;;5132045;27;20072;-80
2023/12/31 00:59:02;;;;;;;7.28;1.90;;;7.90;99.90;;;;;;5132011;27;20015;-80
2023/12/31 01:01:28;;;;;;;9.10;2.15;;;7.90;99.90;;;;;;5130663;27;20030;-80
2023/12/31 01:03:54;;;;;;;12.27;2.10;;;7.90;99.90;;;;;;5114591;27;20023;-80
2023/12/31 01:06:20;;;;;;;11.18;2.50;;;7.90;99.90;;;;;;5131836;27;20441;-80
2023/12/31 01:08:45;;;;;;;15.75;2.17;;;7.90;99.90;;;;;;5131734;27;20022;-80
2023/12/31 01:11:11;;;;;;;14.65;2.70;;;7.80;99.90;;;;;;5131382;27;20027;-80
2023/12/31 01:13:37;;;;;;;13.52;2.80;;;7.80;99.90;;;;;;5131941;27;20019;-80
2023/12/31 01:16:04;;;;;;;14.45;2.20;;;7.80;99.90;;;;;;5131590;27;20481;-80
2023/12/31 01:18:30;;;;;;;12.60;2.83;;;7.80;99.90;;;;;;5131237;27;20083;-80
2023/12/31 01:20:56;;;;;;;7.97;2.00;;;7.80;99.90;;;;;;5131177;27;20027;-80
2023/12/31 01:23:21;;;;;;;15.63;2.78;;;7.80;99.90;;;;;;5131178;27;20095;-81
2023/12/31 01:25:47;;;;;;;10.93;2.50;;;7.80;99.90;;;;;;5112886;27;20370;-80
2023/12/31 01:28:13;;;;;;;17.58;3.00;;;7.80;99.90;;;;;;5112500;28;20091;-81
2023/12/31 01:30:39;;;;;;;16.13;3.53;;;7.80;99.90;;;;;;5132155;27;20061;-80
2023/12/31 01:33:05;;;;;;;15.77;2.80;;;7.80;99.90;;;;;;5131676;27;20152;-80
2023/12/31 01:35:31;;;;;;;17.60;3.60;;;7.80;99.90;;;;;;5112857;28;20023;-81
2023/12/31 01:37:56;;;;;;;11.05;2.65;;;7.80;99.90;;;;;;5131111;28;20024;-81
2023/12/31 01:40:22;;;;;;;18.65;2.80;;;7.80;99.90;;;;;;5131228;28;20081;-81
2023/12/31 01:42:48;;;;;;;13.05;2.55;;;7.80;99.90;;;;;;5131753;28;20394;-80
2023/12/31 01:45:14;;;;;;;14.98;3.08;;;7.90;99.90;;;;;;5131226;28;20140;-80
2023/12/31 01:47:40;;;;;;;15.32;3.33;;;7.80;99.90;;;;;;5132002;28;20024;-80
2023/12/31 01:50:07;;;;;;;14.82;2.65;;;7.80;99.90;;;;;;5132556;28;20031;-80
2023/12/31 01:52:34;;;;;;;11.70;2.97;;;7.80;99.90;;;;;;5131440;28;20033;-80
2023/12/31 01:55:04;;;;;;;13.30;2.53;;;7.90;99.90;;;;;;5132516;27;20050;-80
2023/12/31 01:57:31;;;;;;;14.07;2.45;;;7.90;99.90;;;;;;5131966;28;20023;-80
2023/12/31 01:59:59;;;;;;;9.75;2.17;;;8.00;99.90;;;;;;5132543;28;20072;-80
2023/12/31 02:02:25;;;;;;;14.80;2.45;;;8.00;99.90;;;;;;5112765;28;20023;-81
2023/12/31 02:04:52;;;;;;;11.60;2.30;;;8.00;99.90;;;;;;5131775;28;20047;-80
2023/12/31 02:07:18;;;;;;;12.43;2.53;;;8.00;99.90;;;;;;5131731;27;20019;-81
2023/12/31 02:09:44;;;;;;;10.73;2.15;;;8.00;99.90;;;;;;5136093;27;20023;-80
2023/12/31 02:12:10;;;;;;;13.48;2.35;;;8.00;99.90;;;;;;5135129;27;20023;-79
2023/12/31 02:14:36;;;;;;;18.77;3.00;;;8.00;99.90;;;;;;5134798;27;20046;-80
2023/12/31 02:17:02;;;;;;;16.63;2.58;;;8.00;99.90;;;;;;5135130;27;20027;-79
2023/12/31 02:19:27;;;;;;;10.20;2.25;;;8.10;99.90;;;;;;5134478;27;20015;-80
2023/12/31 02:21:54;;;;;;;10.95;1.83;;;8.10;99.90;;;;;;5135514;27;20102;-79
2023/12/31 02:24:26;;;;;;;11.57;2.30;;;8.20;99.90;;;;;;5098935;27;20024;-80
2023/12/31 02:26:52;;;;;;;13.60;2.75;;;8.10;99.90;;;;;;5099583;27;20019;-80
2023/12/31 02:29:19;;;;;;;11.85;2.63;;;8.10;99.90;;;;;;5134107;27;20023;-80
2023/12/31 02:31:44;;;;;;;8.13;1.27;;;8.10;99.90;;;;;;5135626;27;20035;-80
2023/12/31 02:34:11;;;;;;;9.63;1.80;;;8.10;99.90;;;;;;5134954;27;20019;-80
2023/12/31 02:36:36;;;;;;;14.55;3.80;;;8.10;99.90;;;;;;5134604;27;20054;-80
2023/12/31 02:39:02;;;;;;;8.25;1.90;;;8.10;99.90;;;;;;5116211;27;20405;-79
2023/12/31 02:41:28;;;;;;;9.13;1.70;;;8.00;99.90;;;;;;5134300;27;20063;-80
2023/12/31 02:43:54;;;;;;;9.23;2.10;;;8.10;99.90;;;;;;5134834;27;20294;-80
2023/12/31 02:46:20;;;;;;;12.10;2.15;;;8.00;99.90;;;;;;5134109;27;20016;-80
2023/12/31 02:48:45;;;;;;;9.68;1.67;;;8.00;99.90;;;;;;5134702;27;20102;-80
2023/12/31 02:51:11;;;;;;;6.82;1.70;;;8.00;99.90;;;;;;5134702;27;20476;-80
2023/12/31 02:53:37;;;;;;;3.85;1.13;;;8.00;99.90;;;;;;5133488;27;20160;-80
2023/12/31 02:56:03;;;;;;;6.68;1.50;;;8.00;99.90;;;;;;5134544;27;20419;-79
2023/12/31 02:58:28;;;;;;;4.20;1.20;;;8.00;99.90;;;;;;5133697;27;20031;-80
2023/12/31 03:00:54;;;;;;;6.45;1.10;;;7.90;99.90;;;;;;5134303;27;20031;-80
2023/12/31 03:03:20;;;;;;;5.70;1.10;;;7.90;99.90;;;;;;5133331;27;20027;-80
2023/12/31 03:05:45;;;;;;;5.07;1.08;;;7.80;99.90;;;;;;5115799;27;20185;-80
2023/12/31 03:08:11;;;;;;;2.10;0.80;;;7.80;99.90;;;;;;5134322;27;20346;-80
2023/12/31 03:10:37;;;;;;;6.72;1.02;;;7.70;99.90;;;;;;5114934;27;20039;-81
2023/12/31 03:13:03;;;;;;;6.20;1.25;;;7.70;99.90;;;;;;5134359;27;20015;-80
2023/12/31 03:15:28;;;;;;;4.22;0.80;;;7.70;99.90;;;;;;5115396;27;20106;-80
2023/12/31 03:17:54;;;;;;;5.05;0.80;;;7.60;99.90;;;;;;5134178;27;20057;-80
2023/12/31 03:20:20;;;;;;;8.82;1.65;;;7.60;99.90;;;;;;5132655;27;20124;-80
2023/12/31 03:22:48;;;;;;;2.92;0.80;;;7.50;99.90;;;;;;5135372;27;20118;-80
2023/12/31 03:25:14;;;;;;;2.38;0.40;;;7.50;99.90;;;;;;5134579;27;20071;-80
2023/12/31 03:27:40;;;;;;;3.67;0.80;;;7.40;99.90;;;;;;5114745;27;20424;-80
2023/12/31 03:30:08;;;;;;;4.10;0.80;;;7.40;99.90;;;;;;5133949;27;20111;-81
2023/12/31 03:32:34;;;;;;;6.13;1.13;;;7.40;99.90;;;;;;5133520;27;20023;-81
2023/12/31 03:34:59;;;;;;;1.85;0.85;;;7.30;99.90;;;;;;5133695;27;20068;-81
2023/12/31 03:37:25;;;;;;;5.22;1.42;;;7.30;99.90;;;;;;5133502;27;20023;-80
2023/12/31 03:39:52;;;;;;;3.10;0.82;;;7.20;99.90;;;;;;5135261;27;20106;-80
2023/12/31 03:42:18;;;;;;;1.85;0.75;;;7.20;99.90;;;;;;5134012;27;20105;-80
2023/12/31 03:44:43;;;;;;;2.08;0.52;;;7.20;99.90;;;;;;5132890;27;20433;-80
2023/12/31 03:47:09;;;;;;;1.45;0.52;;;7.20;99.90;;;;;;5098313;27;20025;-80
2023/12/31 03:49:35;;;;;;;6.03;1.00;;;7.10;99.90;;;;;;5132775;27;20027;-80
2023/12/31 03:52:01;;;;;;;4.63;0.77;;;7.00;99.90;;;;;;5133779;27;20019;-80
2023/12/31 03:54:26;;;;;;;4.63;0.60;;;7.00;99.90;;;;;;5110884;28;20054;-80
2023/12/31 03:56:52;;;;;;;2.75;0.57;;;6.90;99.90;;;;;;5113282;28;20534;-80
2023/12/31 03:59:18;;;;;;;3.78;0.68;;;6.90;99.90;;;;;;5112694;28;20034;-80
2023/12/31 04:01:45;;;;;;;3.75;0.60;;;6.90;99.90;;;;;;5112332;28;20093;-80
2023/12/31 04:04:14;;;;;;;4.45;0.70;;;6.90;99.90;;;;;;5112681;28;20117;-80
2023/12/31 04:06:42;;;;;;;4.50;0.60;;;6.90;99.90;;;;;;5112075;28;20031;-80
2023/12/31 04:09:09;;;;;;;4.90;1.00;;;6.90;99.90;;;;;;5112451;28;20019;-81
2023/12/31 04:11:34;;;;;;;2.38;0.43;;;6.90;99.90;;;;;;5111802;28;20058;-80
2023/12/31 04:14:00;;;;;;;4.32;1.23;;;6.80;99.90;;;;;;5112724;28;20027;-80
2023/12/31 04:16:26;;;;;;;1.52;0.40;;;6.80;99.90;;;;;;5111452;28;20126;-81
2023/12/31 04:18:52;;;;;;;1.77;0.95;;;6.80;99.90;;;;;;5110995;28;20038;-81
2023/12/31 04:21:17;;;;;;;7.60;1.35;;;6.90;99.90;;;;;;5111911;28;20068;-80
2023/12/31 04:23:43;;;;;;;5.32;1.20;;;6.90;99.90;;;;;;5111161;28;20371;-80
2023/12/31 04:26:09;;;;;;;3.85;0.85;;;6.90;99.90;;;;;;5110654;28;20045;-80
2023/12/31 04:28:34;;;;;;;7.28;1.02;;;6.90;99.90;;;;;;5111594;28;20084;-80
2023/12/31 04:31:03;;;;;;;3.25;0.70;;;6.90;99.90;;;;;;5111425;28;20020;-80
2023/12/31 04:33:29;;;;;;;4.28;1.00;;;6.90;99.90;;;;;;5111233;28;20019;-80
2023/12/31 04:35:54;;;;;;;5.50;0.90;;;6.90;99.90;;;;;;5112551;28;20030;-79
2023/12/31 04:38:20;;;;;;;5.50;1.10;;;6.90;99.90;;;;;;5111787;28;20024;-79
2023/12/31 04:40:46;;;;;;;4.30;1.17;;;6.90;99.90;;;;;;5109943;28;20032;-80
2023/12/31 04:43:11;;;;;;;8.05;0.98;;;6.90;99.90;;;;;;5111835;28;20059;-80
2023/12/31 04:45:37;;;;;;;4.97;1.15;;;6.90;99.90;;;;;;5109776;28;20040;-80
2023/12/31 04:48:03;;;;;;;7.50;1.67;;;6.90;99.90;;;;;;5111865;28;20020;-80
2023/12/31 04:50:29;;;;;;;5.25;1.13;;;6.90;99.90;;;;;;5110992;28;20149;-80
2023/12/31 04:52:55;;;;;;;6.35;1.13;;;6.90;99.90;;;;;;5112139;27;20016;-79
2023/12/31 04:55:22;;;;;;;4.00;0.85;;;6.90;99.90;;;;;;5131863;27;20067;-80
2023/12/31 04:57:49;;;;;;;5.85;1.67;;;6.90;99.90;;;;;;5131480;27;20015;-81
2023/12/31 05:00:15;;;;;;;5.57;1.50;;;7.00;99.90;;;;;;5132004;27;20027;-80
2023/12/31 05:02:41;;;;;;;4.63;1.27;;;6.90;99.90;;;;;;5131508;27;20042;-79
2023/12/31 05:05:07;;;;;;;7.20;1.48;;;7.00;99.90;;;;;;5132093;27;20451;-81
2023/12/31 05:07:33;;;;;;;7.53;1.33;;;7.00;99.90;;;;;;5131667;27;20155;-81
2023/12/31 05:09:58;;;;;;;10.23;1.75;;;7.00;99.90;;;;;;5113475;27;20019;-81
2023/12/31 05:12:24;;;;;;;6.95;1.02;;;7.00;99.90;;;;;;5132284;27;20305;-80
2023/12/31 05:14:50;;;;;;;6.97;1.35;;;7.00;99.90;;;;;;5131318;27;20456;-81
2023/12/31 05:17:16;;;;;;;5.97;1.23;;;7.00;99.90;;;;;;5131790;27;20475;-80
2023/12/31 05:19:41;;;;;;;7.70;1.30;;;7.00;99.90;;;;;;5131157;27;20015;-80
2023/12/31 05:22:07;;;;;;;7.97;1.90;;;6.90;99.90;;;;;;5131704;27;20019;-78
2023/12/31 05:24:33;;;;;;;11.73;1.60;;;6.90;99.90;;;;;;5112597;27;20114;-80
2023/12/31 05:26:58;;;;;;;6.55;1.67;;;6.90;99.90;;;;;;5131627;27;20147;-80
2023/12/31 05:29:24;;;;;;;4.93;1.27;;;6.90;99.90;;;;;;5131290;27;20023;-80
2023/12/31 05:31:50;;;;;;;6.43;1.50;;;6.90;99.90;;;;;;5130917;27;20370;-80
2023/12/31 05:34:15;;;;;;;6.38;1.42;;;6.90;99.90;;;;;;5131402;27;20023;-80
2023/12/31 05:36:41;;;;;;;7.57;1.60;;;6.90;99.90;;;;;;5131203;28;20336;-80
2023/12/31 05:39:08;;;;;;;6.68;1.40;;;6.90;99.90;;;;;;5132071;28;20015;-79
2023/12/31 05:41:35;;;;;;;7.25;1.30;;;6.90;99.90;;;;;;5130962;27;20023;-80
2023/12/31 05:44:00;;;;;;;8.00;1.90;;;7.00;99.90;;;;;;5117161;27;20092;-80
2023/12/31 05:46:27;;;;;;;7.05;1.23;;;7.00;99.90;;;;;;5135414;27;20023;-80
2023/12/31 05:48:53;;;;;;;7.22;1.63;;;7.00;99.90;;;;;;5135861;27;20400;-79
2023/12/31 05:51:18;;;;;;;7.40;1.55;;;7.10;99.90;;;;;;5135945;27;20038;-78
2023/12/31 05:53:44;;;;;;;7.70;1.60;;;7.00;99.90;;;;;;5135161;27;20043;-80
2023/12/31 05:56:10;;;;;;;8.75;1.35;;;7.10;99.90;;;;;;5117172;27;20015;-79
2023/12/31 05:58:36;;;;;;;8.05;1.40;;;7.10;99.90;;;;;;5135100;27;20444;-80
2023/12/31 06:01:02;;;;;;;7.72;1.58;;;7.10;99.90;;;;;;5135707;27;20087;-79
2023/12/31 06:03:28;;;;;;;6.78;1.40;;;7.10;99.90;;;;;;5135517;27;20027;-80
2023/12/31 06:05:54;;;;;;;5.10;1.00;;;7.10;99.90;;;;;;5135450;27;20018;-80
2023/12/31 06:08:19;;;;;;;6.95;1.42;;;7.10;99.90;;;;;;5135578;27;20050;-79
2023/12/31 06:10:45;;;;;;;9.73;1.60;;;7.00;99.90;;;;;;5116657;27;20027;-79
2023/12/31 06:13:11;;;;;;;7.38;1.63;;;7.00;99.90;;;;;;5135621;27;20019;-79
2023/12/31 06:15:37;;;;;;;9.68;1.30;;;7.00;99.90;;;;;;5134944;27;20033;-78
2023/12/31 06:18:02;;;;;;;5.78;1.92;;;6.90;99.90;;;;;;5135346;27;20023;-79
2023/12/31 06:20:28;;;;;;;10.30;1.50;;;6.90;99.90;;;;;;5134885;27;20099;-79
2023/12/31 06:22:54;;;;;;;6.93;0.90;;;6.90;99.90;;;;;;5135196;27;20059;-80
2023/12/31 06:25:21;;;;;;;10.98;1.65;;;6.90;99.90;;;;;;5134866;27;20023;-80
2023/12/31 06:27:46;;;;;;;12.20;1.52;;;6.90;99.90;;;;;;5133938;27;20358;-80
2023/12/31 06:30:12;;;;;;;7.55;1.40;;;6.80;99.90;;;;;;5134460;27;20019;-80
2023/12/31 06:32:38;;;;;;;8.15;1.45;;;6.80;99.90;;;;;;5134549;27;20036;-80
2023/12/31 06:35:04;;;;;;;5.35;1.15;;;6.70;99.90;;;;;;5137580;27;20071;-80
2023/12/31 06:37:30;;;;;;;6.55;1.13;;;6.80;99.90;;;;;;5137801;27;20049;-81
2023/12/31 06:39:55;;;;;;;10.27;1.60;;;6.70;99.90;;;;;;5158842;27;20108;-78
2023/12/31 06:42:21;;;;;;;8.25;1.50;;;6.80;99.90;;;;;;5158691;27;20082;-78
2023/12/31 06:44:47;;;;;;;10.63;2.03;;;6.70;99.90;;;;;;5139542;27;20019;-79
2023/12/31 06:47:13;;;;;;;7.93;1.83;;;6.70;99.90;;;;;;5134975;27;20015;-79
2023/12/31 06:49:39;;;;;;;6.07;1.42;;;6.70;99.90;;;;;;5134486;27;20035;-79
2023/12/31 06:52:05;;;;;;;8.38;1.40;;;6.70;99.90;;;;;;5134756;27;20026;-79
2023/12/31 06:54:30;;;;;;;6.53;1.30;;;6.70;99.90;;;;;;5133922;27;20043;-78
2023/12/31 06:56:56;;;;;;;4.50;1.10;;;6.70;99.90;;;;;;5134144;27;20023;-79
2023/12/31 06:59:22;;;;;;;8.43;1.33;;;6.70;99.90;;;;;;5116174;27;20135;-79
2023/12/31 07:01:48;;;;;;;7.53;1.17;;;6.70;99.90;;;;;;5115350;27;20027;-79
2023/12/31 07:04:13;;;;;;;4.70;1.15;;;6.70;99.90;;;;;;5134514;27;20027;-79
2023/12/31 07:06:39;;;;;;;5.70;0.95;;;6.70;99.90;;;;;;5133473;27;20034;-80
2023/12/31 07:09:05;;;;;;;6.10;1.52;;;6.70;99.90;;;;;;5115744;27;20030;-80
2023/12/31 07:11:31;;;;;;;7.28;1.20;;;6.70;99.90;;;;;;5134550;27;20050;-80
2023/12/31 07:13:56;;;;;;;8.05;1.30;;;6.70;99.90;;;;;;5133474;27;20046;-79
2023/12/31 07:16:22;;;;;;;6.03;1.10;;;6.80;99.90;;;;;;5134236;27;20326;-80
2023/12/31 07:18:48;;;;;;;6.90;1.55;;;6.80;99.90;;;;;;5133600;27;20023;-79
2023/12/31 07:21:21;;;;;;;6.88;0.93;;;6.80;99.90;;;;;;5133906;27;20098;-80
2023/12/31 07:23:47;;;;;;;7.90;1.38;;;6.90;99.90;;;;;;5133058;27;20320;-80
2023/12/31 07:26:24;;;;;;;5.68;1.17;;;6.90;99.90;;;;;;5133460;27;20019;-80
2023/12/31 07:28:49;;;;;;;5.93;1.17;;;7.00;99.90;;;;;;5132972;27;20687;-80
2023/12/31 07:31:15;;;;;;;7.55;1.27;;;7.00;99.90;;;;;;5114598;27;20122;-80
2023/12/31 07:33:41;;;;;;;7.10;1.02;;;7.10;99.90;;;;;;5133179;27;20058;-80
2023/12/31 07:36:07;;;;;;;7.60;1.20;;;7.10;99.90;;;;;;5134558;27;20027;-80
2023/12/31 07:38:32;;;;;;;7.57;1.23;;;7.10;99.90;;;;;;5115179;27;20114;-80
2023/12/31 07:40:58;;;;;;;6.93;1.00;;;7.10;99.90;;;;;;5133185;27;20102;-80
2023/12/31 07:43:24;;;;;;;8.93;1.50;;;7.10;99.90;;;;;;5133665;27;20023;-80
2023/12/31 07:45:49;;;;;;;10.88;1.40;;;7.20;99.90;;;;;;5133188;27;20031;-81
2023/12/31 07:48:15;;;;;;;5.70;0.90;;;7.20;99.90;;;;;;5132912;27;20501;-80
2023/12/31 07:50:41;;;;;;;5.10;1.00;;;7.20;99.90;;;;;;5115073;27;20033;-80
2023/12/31 07:53:07;;;;;;;10.20;1.65;;;7.30;99.90;;;;;;5133143;27;20464;-80
2023/12/31 07:55:32;;;;;;;14.43;2.47;;;7.30;99.90;;;;;;5114880;27;20023;-80
2023/12/31 07:57:58;;;;;;;6.40;0.98;;;7.40;99.90;;;;;;5133060;27;20459;-80
2023/12/31 08:00:24;;;;;;;6.47;1.17;;;7.40;99.90;;;;;;5132998;27;20027;-80
2023/12/31 08:02:49;;;;;;;7.85;1.33;;;7.50;99.90;;;;;;5132555;27;20358;-81
2023/12/31 08:05:15;;;;;;;4.63;0.90;;;7.50;99.90;;;;;;5132107;27;20061;-80
2023/12/31 08:07:41;;;;;;;10.52;1.25;;;7.50;99.90;;;;;;5096990;27;20340;-81
2023/12/31 08:10:07;;;;;;;5.78;1.10;;;7.50;99.90;;;;;;5132837;27;20079;-80
2023/12/31 08:12:33;;;;;;;13.23;1.73;;;7.60;99.90;;;;;;5132720;27;20123;-80
2023/12/31 08:14:59;;;;;;;7.57;1.30;;;7.50;99.90;;;;;;5132454;27;20025;-81
2023/12/31 08:17:26;;;;;;;8.95;1.42;;;7.50;99.90;;;;;;5132782;27;20027;-80
2023/12/31 08:19:52;;;;;;;10.18;1.52;;;7.60;99.90;;;;;;5113578;27;20101;-80
2023/12/31 08:22:17;;;;;;;7.18;1.55;;;7.50;99.90;;;;;;5132512;27;20107;-81
2023/12/31 08:24:43;;;;;;;4.70;1.17;;;7.50;99.90;;;;;;5131851;27;20323;-81
2023/12/31 08:27:09;;;;;;;6.30;1.13;;;7.50;99.90;;;;;;5114051;27;20052;-81
2023/12/31 08:29:34;;;;;;;4.75;1.42;;;7.40;99.90;;;;;;5133156;27;20019;-81
2023/12/31 08:32:00;;;;;;;9.32;1.52;;;7.50;99.90;;;;;;5132082;27;20023;-80
2023/12/31 08:34:26;;;;;;;8.07;1.17;;;7.50;99.90;;;;;;5133199;27;20108;-80
2023/12/31 08:36:52;;;;;;;8.75;1.85;;;7.40;99.90;;;;;;5132878;27;20057;-79
2023/12/31 08:39:18;;;;;;;8.57;1.52;;;7.50;99.90;;;;;;5132275;27;20536;-80
2023/12/31 08:41:44;;;;;;;5.03;1.17;;;7.50;99.90;;;;;;5131514;27;20022;-82
2023/12/31 08:44:11;;;;;;;7.53;1.48;;;7.40;99.90;;;;;;5132272;27;20030;-81
2023/12/31 08:46:36;;;;;;;7.50;1.42;;;7.50;99.90;;;;;;5132910;27;20023;-81
2023/12/31 08:49:02;;;;;;;4.32;1.40;;;7.50;99.90;;;;;;5132665;27;20026;-79
2023/12/31 08:51:28;;;;;;;6.70;1.33;;;7.50;99.90;;;;;;5132463;27;20336;-80
2023/12/31 08:53:54;;;;;;;7.30;1.40;;;7.50;99.90;;;;;;5131726;27;20096;-82
2023/12/31 08:56:20;;;;;;;7.43;1.25;;;7.60;99.90;;;;;;5111635;27;20314;-81
2023/12/31 08:58:45;;;;;;;10.95;1.60;;;7.60;99.90;;;;;;5103034;27;20031;-81
2023/12/31 09:01:12;;;;;;;8.25;1.20;;;7.60;99.90;;;;;;5101836;27;20054;-81
2023/12/31 09:03:38;;;;;;;8.02;1.40;;;7.70;99.90;;;;;;5113243;27;20028;-80
2023/12/31 09:06:04;;;;;;;5.57;0.93;;;7.70;99.90;;;;;;5110800;28;20020;-80
2023/12/31 09:08:29;;;;;;;4.32;1.00;;;7.60;99.90;;;;;;5111665;28;20065;-82
2023/12/31 09:10:55;;;;;;;4.40;0.95;;;7.60;99.90;;;;;;5110989;28;20182;-83
2023/12/31 09:13:22;;;;;;;6.40;1.10;;;7.60;99.90;;;;;;5112012;28;20510;-85
2023/12/31 09:15:48;;;;;;;4.45;1.38;;;7.50;99.90;;;;;;5105365;27;20064;-84
2023/12/31 09:18:16;;;;;;;7.35;1.48;;;7.50;99.90;;;;;;5132671;27;20103;-86
2023/12/31 09:20:42;;;;;;;5.40;0.80;;;7.40;99.90;;;;;;5132538;27;20019;-91
2023/12/31 09:23:08;;;;;;;4.72;1.40;;;7.40;99.90;;;;;;5133459;27;20148;-87
2023/12/31 09:25:35;;;;;;;6.80;1.38;;;7.40;99.90;;;;;;5133371;27;20030;-84
2023/12/31 09:28:04;;;;;;;7.78;1.20;;;7.40;99.90;;;;;;5114040;27;20123;-87
2023/12/31 09:30:30;;;;;;;7.07;1.33;;;7.30;99.90;;;;;;5114314;28;20137;-87
2023/12/31 09:32:55;;;;;;;6.93;1.45;;;7.30;99.90;;;;;;5131613;27;20098;-85
2023/12/31 09:35:21;;;;;;;6.45;1.20;;;7.30;99.90;;;;;;5132549;27;20137;-87
2023/12/31 09:37:47;;;;;;;6.75;1.30;;;7.20;99.90;;;;;;5132189;28;20050;-85
2023/12/31 09:40:13;;;;;;;7.03;1.20;;;7.20;99.90;;;;;;5132471;28;20020;-84
2023/12/31 09:42:51;;;;;;;9.93;1.38;;;7.20;99.90;;;;;;5131747;28;20019;-81
2023/12/31 09:45:23;;;;;;;8.10;1.63;;;7.20;99.90;;;;;;5113774;28;20408;-81
2023/12/31 09:47:50;;;;;;;11.13;2.15;;;7.20;99.90;;;;;;5131407;28;20072;-82
2023/12/31 09:50:22;;;;;;;9.35;1.80;;;7.20;99.90;;;;;;5132807;28;20395;-80
2023/12/31 09:52:49;;;;;;;9.65;2.10;;;7.30;99.90;;;;;;5125951;27;20024;-81
2023/12/31 09:55:18;;;;;;;4.78;1.38;;;7.20;99.90;;;;;;5121208;28;20027;-82
2023/12/31 09:57:47;;;;;;;8.27;2.22;;;7.20;99.90;;;;;;5120040;28;20046;-82
2023/12/31 10:00:13;;;;;;;5.22;1.23;;;7.20;99.90;;;;;;5111883;28;20090;-82
2023/12/31 10:02:39;;;;;;;6.65;1.10;;;7.20;99.90;;;;;;5111464;28;20039;-80
2023/12/31 10:05:06;;;;;;;5.25;1.27;;;7.30;99.90;;;;;;5111452;28;20027;-79
2023/12/31 10:07:32;;;;;;;7.40;1.23;;;7.30;99.90;;;;;;5111205;28;20473;-80
2023/12/31 10:09:59;;;;;;;8.73;1.63;;;7.30;99.90;;;;;;5110921;28;20381;-79
2023/12/31 10:12:27;;;;;;;5.20;1.08;;;7.40;99.90;;;;;;5110793;28;20103;-80
2023/12/31 10:14:53;;;;;;;10.27;1.30;;;7.30;99.90;;;;;;5111049;28;20391;-81
2023/12/31 10:17:20;;;;;;;10.25;1.58;;;7.40;99.90;;;;;;5110832;28;20016;-80
2023/12/31 10:19:46;;;;;;;5.63;1.30;;;7.40;99.90;;;;;;5110848;28;20012;-81
2023/12/31 10:22:13;;;;;;;5.95;1.20;;;7.50;99.90;;;;;;5110874;28;20032;-81
2023/12/31 10:24:40;;;;;;;7.80;1.80;;;7.50;99.90;;;;;;5113787;28;20386;-81
2023/12/31 10:27:08;;;;;;;5.22;1.38;;;7.60;99.90;;;;;;5123511;28;20037;-79
2023/12/31 10:29:35;;;;;;;8.32;1.40;;;7.60;99.90;;;;;;5127215;27;20022;-82
2023/12/31 10:32:02;;;;;;;8.10;1.30;;;7.70;99.90;;;;;;5130122;27;20031;-80
2023/12/31 10:34:28;;;;;;;4.80;0.88;;;7.70;99.90;;;;;;5148792;27;20083;-81
2023/12/31 10:37:05;;;;;;;6.05;1.40;;;7.80;99.90;;;;;;5146216;27;20018;-80
2023/12/31 10:39:38;;;;;;;5.80;1.05;;;7.80;99.90;;;;;;5141298;27;20102;-80
2023/12/31 10:42:06;;;;;;;6.63;1.98;;;7.80;99.90;;;;;;5145190;27;20027;-80
2023/12/31 10:44:34;;;;;;;7.18;1.98;;;7.80;99.90;;;;;;5143030;27;20503;-79
2023/12/31 10:47:04;;;;;;;6.57;1.88;;;7.80;99.90;;;;;;5145171;27;20076;-80
2023/12/31 10:49:32;;;;;;;9.00;1.75;;;7.80;99.90;;;;;;5151406;27;20019;-80
2023/12/31 10:52:02;;;;;;;10.32;1.73;;;7.80;99.90;;;;;;5155413;27;20061;-80
2023/12/31 10:54:53;;;;;;;8.80;1.65;;;7.80;99.90;;;;;;5137250;27;20435;-80
2023/12/31 10:57:21;;;;;;;7.53;1.40;;;7.80;99.90;;;;;;5155838;27;20029;-80
2023/12/31 10:59:52;;;;;;;7.50;1.48;;;7.80;99.90;;;;;;5158044;27;20058;-82
2023/12/31 11:02:22;;;;;;;8.23;1.70;;;7.80;99.90;;;;;;5158811;27;20098;-81
2023/12/31 11:04:49;;;;;;;6.38;1.23;;;7.80;99.90;;;;;;5178538;27;20029;-81
2023/12/31 11:07:19;;;;;;;8.05;1.67;;;7.80;99.90;;;;;;5179109;27;20010;-79
2023/12/31 11:09:49;;;;;;;5.25;1.40;;;7.80;99.90;;;;;;5156548;27;20078;-82
2023/12/31 11:12:15;;;;;;;7.57;1.35;;;7.80;99.90;;;;;;5155828;27;20026;-81
2023/12/31 11:14:53;;;;;;;6.47;1.50;;;7.80;99.90;;;;;;5137247;27;20019;-81
2023/12/31 11:17:47;;;;;;;10.88;1.63;;;7.80;99.90;;;;;;5155207;27;20030;-81
2023/12/31 11:20:27;;;;;;;5.68;1.52;;;7.80;99.90;;;;;;5155238;27;20030;-81
2023/12/31 11:23:05;;;;;;;5.53;1.48;;;7.90;99.90;;;;;;5154990;27;20033;-81
2023/12/31 11:25:32;;;;;;;6.03;1.50;;;7.90;99.90;;;;;;5155268;27;20050;-80
2023/12/31 11:27:58;;;;;;;5.85;1.88;;;8.00;99.90;;;;;;5154289;27;20424;-81
2023/12/31 11:30:50;;;;;;;7.95;1.75;;;8.00;99.90;;;;;;5130460;27;20051;-80
2023/12/31 11:33:20;;;;;;;5.10;1.55;;;8.10;99.90;;;;;;5124089;27;20056;-81
2023/12/31 11:35:50;;;;;;;4.95;1.23;;;8.10;99.90;;;;;;5088368;27;20461;-81
2023/12/31 11:38:16;;;;;;;10.20;1.92;;;8.20;99.90;;;;;;5125329;27;20397;-80
2023/12/31 11:41:00;;;;;;;6.97;1.70;;;8.20;99.90;;;;;;5133573;27;20023;-83
2023/12/31 11:43:34;;;;;;;8.38;2.30;;;8.30;99.90;;;;;;5134400;27;20060;-80
2023/12/31 11:46:01;;;;;;;7.90;1.83;;;8.30;99.90;;;;;;5115290;27;20015;-80
2023/12/31 11:48:26;;;;;;;8.40;2.13;;;8.30;99.90;;;;;;5134316;27;20068;-79
2023/12/31 11:50:56;;;;;;;10.07;2.00;;;8.30;99.90;;;;;;5133786;27;20018;-79
2023/12/31 11:53:22;;;;;;;12.48;2.40;;;8.30;99.90;;;;;;5133936;27;20490;-80
2023/12/31 11:55:56;;;;;;;8.40;1.77;;;8.30;99.90;;;;;;5134328;27;20343;-81
2023/12/31 11:58:22;;;;;;;8.15;2.00;;;8.40;99.90;;;;;;5133947;27;20118;-79
2023/12/31 12:00:52;;;;;;;10.88;1.80;;;8.40;99.90;;;;;;5133594;27;20027;-80
2023/12/31 12:03:19;;;;;;;7.85;2.05;;;8.40;99.90;;;;;;5133799;27;20027;-80
2023/12/31 12:05:50;;;;;;;13.38;1.90;;;8.50;99.90;;;;;;5115506;27;20047;-80
2023/12/31 12:08:16;;;;;;;10.80;1.92;;;8.50;99.90;;;;;;5135543;27;20062;-79
2023/12/31 12:10:42;;;;;;;5.88;1.33;;;8.50;99.90;;;;;;5115707;27;20023;-79
2023/12/31 12:13:11;;;;;;;7.93;1.55;;;8.50;99.90;;;;;;5134066;27;20456;-78
2023/12/31 12:15:38;;;;;;;7.60;1.75;;;8.50;99.90;;;;;;5133997;27;20027;-78
2023/12/31 12:18:18;;;;;;;11.93;1.88;;;8.50;99.90;;;;;;5133294;27;20019;-78
2023/12/31 12:20:46;;;;;;;9.23;1.83;;;8.60;99.90;;;;;;5133709;27;20031;-77
2023/12/31 12:23:21;;;;;;;7.80;1.42;;;8.50;99.90;;;;;;5133681;27;20051;-78
2023/12/31 12:25:47;;;;;;;5.40;1.38;;;8.60;99.90;;;;;;5134107;27;20073;-79
2023/12/31 12:28:14;;;;;;;8.30;1.60;;;8.60;99.90;;;;;;5133301;27;20027;-79
2023/12/31 12:30:41;;;;;;;6.97;1.70;;;8.50;99.90;;;;;;5134181;27;20019;-79
2023/12/31 12:33:08;;;;;;;10.73;1.90;;;8.50;99.90;;;;;;5133831;27;20418;-78
2023/12/31 12:35:37;;;;;;;6.20;1.83;;;8.50;99.90;;;;;;5115760;27;20015;-80
2023/12/31 12:38:03;;;;;;;5.10;1.55;;;8.50;99.90;;;;;;5133175;27;20019;-77
2023/12/31 12:40:29;;;;;;;8.43;1.77;;;8.40;99.90;;;;;;5133786;27;20046;-78
2023/12/31 12:42:55;;;;;;;12.00;2.10;;;8.40;99.90;;;;;;5133130;27;20019;-80
2023/12/31 12:45:23;;;;;;;5.50;1.40;;;8.40;99.90;;;;;;5129542;27;20133;-77
2023/12/31 12:47:49;;;;;;;7.63;1.70;;;8.40;99.90;;;;;;5104573;27;20016;-77
2023/12/31 12:50:14;;;;;;;9.02;1.90;;;8.40;99.90;;;;;;5117903;27;20065;-78
2023/12/31 12:52:40;;;;;;;8.65;1.95;;;8.50;99.90;;;;;;5093081;28;20131;-78